createdAt,value
2018-01-16T00:02:16.467Z,5.90
2018-01-16T00:04:43.933Z,5.90
2018-01-16T00:07:12.141Z,5.90
2018-01-16T00:09:39.580Z,5.90
2018-01-16T00:12:07.059Z,6.00
2018-01-16T00:14:34.492Z,6.00
2018-01-16T00:17:01.939Z,6.00
2018-01-16T00:19:30.143Z,6.10
2018-01-16T00:21:57.591Z,6.10
2018-01-16T00:24:25.041Z,6.10
2018-01-16T00:26:52.479Z,6.10
2018-01-16T00:29:20.696Z,6.10
2018-01-16T00:31:48.194Z,6.10
2018-01-16T00:34:15.627Z,6.10
2018-01-16T00:36:43.074Z,6.20
2018-01-16T00:39:10.534Z,6.20
2018-01-16T00:41:37.964Z,6.20
2018-01-16T00:44:05.402Z,6.10
2018-01-16T00:46:32.843Z,6.20
2018-01-16T00:49:00.307Z,6.20
2018-01-16T00:51:28.503Z,6.20
2018-01-16T00:53:55.949Z,6.20
2018-01-16T00:56:23.382Z,6.20
2018-01-16T00:58:51.598Z,6.20
2018-01-16T01:01:19.055Z,6.20
2018-01-16T01:03:46.509Z,6.30
2018-01-16T01:06:13.950Z,6.30
2018-01-16T01:08:41.521Z,6.30
2018-01-16T01:11:08.959Z,6.30
2018-01-16T01:13:36.404Z,6.30
2018-01-16T01:16:03.843Z,6.30
2018-01-16T01:18:31.286Z,6.40
2018-01-16T01:20:58.751Z,6.40
2018-01-16T01:23:26.196Z,6.40
2018-01-16T01:25:53.651Z,6.40
2018-01-16T01:28:21.139Z,6.40
2018-01-16T01:30:49.406Z,6.40
2018-01-16T01:33:16.859Z,6.40
2018-01-16T01:35:44.296Z,6.40
2018-01-16T01:38:11.769Z,6.50
2018-01-16T01:40:39.208Z,6.50
2018-01-16T01:43:06.648Z,6.50
2018-01-16T01:45:34.082Z,6.50
2018-01-16T01:48:01.559Z,6.50
2018-01-16T01:50:28.995Z,6.60
2018-01-16T01:52:56.478Z,6.50
2018-01-16T01:55:23.903Z,6.60
2018-01-16T01:57:51.355Z,6.70
2018-01-16T02:00:18.798Z,6.70
2018-01-16T02:02:47.011Z,6.70
2018-01-16T02:05:14.489Z,6.70
2018-01-16T02:07:41.937Z,6.70
2018-01-16T02:10:09.374Z,6.70
2018-01-16T02:12:36.825Z,6.70
2018-01-16T02:15:04.285Z,6.80
2018-01-16T02:17:31.715Z,6.80
2018-01-16T02:19:59.938Z,6.80
2018-01-16T02:22:28.105Z,6.80
2018-01-16T02:24:55.558Z,6.90
2018-01-16T02:27:22.996Z,6.90
2018-01-16T02:29:50.436Z,6.90
2018-01-16T02:32:17.875Z,6.90
2018-01-16T02:34:46.096Z,6.90
2018-01-16T02:37:13.565Z,6.90
2018-01-16T02:39:41.003Z,6.90
2018-01-16T02:42:08.450Z,6.90
2018-01-16T02:44:35.899Z,6.90
2018-01-16T02:47:03.339Z,6.90
2018-01-16T02:49:31.555Z,6.80
2018-01-16T02:51:59.014Z,6.80
2018-01-16T02:54:26.472Z,6.80
2018-01-16T02:56:53.922Z,6.80
2018-01-16T02:59:21.881Z,6.80
2018-01-16T03:01:49.315Z,6.80
2018-01-16T03:04:17.567Z,6.70
2018-01-16T03:06:45.008Z,6.80
2018-01-16T03:09:12.462Z,6.80
2018-01-16T03:11:39.925Z,6.80
2018-01-16T03:14:07.359Z,6.80
2018-01-16T03:16:34.802Z,6.80
2018-01-16T03:19:02.248Z,6.80
2018-01-16T03:21:29.689Z,6.80
2018-01-16T03:23:57.323Z,6.80
2018-01-16T03:26:24.711Z,6.70
2018-01-16T03:28:52.156Z,6.70
2018-01-16T03:31:20.405Z,6.70
2018-01-16T03:33:47.851Z,6.70
2018-01-16T03:36:15.291Z,6.70
2018-01-16T03:38:42.732Z,6.70
2018-01-16T03:41:10.238Z,6.80
2018-01-16T03:43:37.756Z,6.80
2018-01-16T03:46:05.231Z,6.80
2018-01-16T03:48:32.666Z,6.80
2018-01-16T03:51:00.122Z,6.90
2018-01-16T03:53:27.587Z,6.80
2018-01-16T03:55:55.028Z,6.80
2018-01-16T03:58:22.488Z,6.80
2018-01-16T04:00:49.923Z,6.70
2018-01-16T04:03:17.363Z,6.70
2018-01-16T04:05:45.603Z,6.60
2018-01-16T04:08:13.063Z,6.60
2018-01-16T04:10:40.518Z,6.70
2018-01-16T04:13:07.971Z,6.70
2018-01-16T04:15:35.423Z,6.70
2018-01-16T04:18:02.884Z,6.70
2018-01-16T04:20:30.343Z,6.60
2018-01-16T04:22:57.770Z,6.60
2018-01-16T04:25:25.265Z,6.60
2018-01-16T04:27:52.712Z,6.60
2018-01-16T04:30:20.173Z,6.70
2018-01-16T04:32:47.638Z,6.70
2018-01-16T04:35:15.100Z,6.70
2018-01-16T04:37:42.557Z,6.80
2018-01-16T04:40:10.006Z,6.80
2018-01-16T04:42:37.463Z,6.80
2018-01-16T04:45:04.949Z,6.80
2018-01-16T04:47:33.210Z,6.80
2018-01-16T04:50:00.648Z,6.80
2018-01-16T04:52:28.107Z,6.80
2018-01-16T04:54:55.540Z,6.90
2018-01-16T04:57:22.996Z,6.90
2018-01-16T04:59:50.431Z,6.90
2018-01-16T05:02:17.904Z,6.90
2018-01-16T05:04:45.333Z,6.90
2018-01-16T05:07:12.784Z,6.90
2018-01-16T05:09:40.237Z,6.90
2018-01-16T05:12:07.683Z,6.90
2018-01-16T05:14:35.894Z,6.90
2018-01-16T05:17:03.342Z,6.90
2018-01-16T05:19:30.803Z,6.90
2018-01-16T05:21:58.292Z,6.90
2018-01-16T05:24:25.735Z,6.90
2018-01-16T05:26:53.191Z,6.90
2018-01-16T05:29:20.643Z,6.80
2018-01-16T05:31:48.097Z,6.80
2018-01-16T05:34:15.549Z,6.80
2018-01-16T05:36:42.990Z,6.80
2018-01-16T05:39:10.434Z,6.80
2018-01-16T05:41:38.307Z,6.80
2018-01-16T05:44:05.751Z,6.80
2018-01-16T05:46:33.186Z,6.80
2018-01-16T05:49:00.623Z,6.80
2018-01-16T05:51:28.110Z,6.80
2018-01-16T05:53:56.329Z,6.90
2018-01-16T05:56:23.750Z,6.90
2018-01-16T05:58:51.203Z,6.90
2018-01-16T06:01:19.431Z,6.90
2018-01-16T06:03:46.881Z,6.80
2018-01-16T06:06:14.311Z,6.90
2018-01-16T06:08:41.767Z,6.90
2018-01-16T06:11:09.211Z,6.90
2018-01-16T06:13:36.667Z,6.90
2018-01-16T06:16:04.119Z,6.90
2018-01-16T06:18:32.333Z,6.90
2018-01-16T06:20:59.766Z,6.90
2018-01-16T06:23:27.323Z,6.90
2018-01-16T06:25:54.776Z,6.90
2018-01-16T06:28:22.231Z,6.90
2018-01-16T06:30:50.439Z,6.90
2018-01-16T06:33:17.899Z,6.90
2018-01-16T06:35:45.345Z,6.90
2018-01-16T06:38:12.803Z,6.90
2018-01-16T06:40:40.243Z,6.90
2018-01-16T06:43:07.700Z,6.90
2018-01-16T06:45:35.152Z,6.90
2018-01-16T06:48:02.622Z,7.00
2018-01-16T06:50:30.072Z,7.00
2018-01-16T06:52:57.539Z,7.00
2018-01-16T06:55:24.999Z,7.00
2018-01-16T06:57:52.449Z,7.00
2018-01-16T07:00:20.004Z,7.00
2018-01-16T07:02:47.443Z,7.00
2018-01-16T07:05:14.895Z,7.00
2018-01-16T07:07:42.344Z,7.10
2018-01-16T07:10:10.563Z,7.10
2018-01-16T07:12:38.010Z,7.10
2018-01-16T07:15:05.455Z,7.10
2018-01-16T07:17:32.912Z,7.20
2018-01-16T07:20:00.355Z,7.20
2018-01-16T07:22:27.807Z,7.20
2018-01-16T07:24:55.251Z,7.20
2018-01-16T07:27:23.451Z,7.20
2018-01-16T07:29:50.896Z,7.20
2018-01-16T07:32:18.326Z,7.20
2018-01-16T07:34:45.767Z,7.20
2018-01-16T07:37:13.206Z,7.30
2018-01-16T07:39:40.655Z,7.30
2018-01-16T07:42:08.098Z,7.30
2018-01-16T07:44:35.551Z,7.40
2018-01-16T07:47:02.994Z,7.40
2018-01-16T07:49:30.435Z,7.40
2018-01-16T07:51:58.671Z,7.50
2018-01-16T07:54:26.271Z,7.50
2018-01-16T07:56:54.472Z,7.60
2018-01-16T07:59:21.914Z,7.60
2018-01-16T08:01:49.359Z,7.60
2018-01-16T08:04:17.567Z,7.60
2018-01-16T08:06:45.043Z,7.60
2018-01-16T08:09:12.470Z,7.60
2018-01-16T08:11:39.911Z,7.60
2018-01-16T08:14:07.346Z,7.60
2018-01-16T08:16:35.562Z,7.40
2018-01-16T08:19:03.011Z,7.50
2018-01-16T08:21:30.451Z,7.40
2018-01-16T08:23:58.383Z,7.30
2018-01-16T08:26:25.819Z,7.20
2018-01-16T08:28:53.254Z,7.20
2018-01-16T08:31:20.747Z,7.10
2018-01-16T08:33:48.216Z,7.10
2018-01-16T08:36:15.660Z,7.10
2018-01-16T08:38:43.117Z,7.10
2018-01-16T08:41:10.560Z,7.00
2018-01-16T08:43:38.007Z,7.00
2018-01-16T08:46:05.445Z,7.10
2018-01-16T08:48:33.515Z,7.10
2018-01-16T08:51:00.955Z,7.10
2018-01-16T08:53:28.386Z,7.10
2018-01-16T08:55:56.586Z,7.10
2018-01-16T08:58:24.884Z,7.10
2018-01-16T09:00:52.320Z,7.10
2018-01-16T09:03:19.750Z,7.10
2018-01-16T09:05:47.975Z,7.20
2018-01-16T09:08:15.485Z,7.20
2018-01-16T09:10:42.906Z,7.20
2018-01-16T09:13:10.347Z,7.20
2018-01-16T09:15:37.778Z,7.30
2018-01-16T09:18:05.220Z,7.30
2018-01-16T09:20:33.702Z,7.40
2018-01-16T09:23:01.151Z,7.40
2018-01-16T09:25:29.364Z,7.50
2018-01-16T09:27:56.799Z,7.50
2018-01-16T09:30:24.227Z,7.50
2018-01-16T09:32:51.700Z,7.50
2018-01-16T09:35:20.557Z,7.40
2018-01-16T09:37:48.013Z,7.40
2018-01-16T09:40:15.447Z,7.40
2018-01-16T09:42:42.899Z,7.50
2018-01-16T09:45:10.336Z,7.50
2018-01-16T09:47:37.779Z,7.60
2018-01-16T09:50:05.210Z,7.60
2018-01-16T09:52:33.416Z,7.70
2018-01-16T09:55:00.857Z,7.70
2018-01-16T09:57:29.069Z,7.90
2018-01-16T09:59:56.517Z,7.90
2018-01-16T10:02:23.947Z,7.90
2018-01-16T10:04:51.387Z,8.00
2018-01-16T10:07:18.824Z,8.00
2018-01-16T10:09:46.263Z,8.00
2018-01-16T10:12:13.706Z,8.00
2018-01-16T10:14:42.078Z,8.00
2018-01-16T10:17:09.524Z,8.00
2018-01-16T10:19:36.954Z,8.00
2018-01-16T10:22:05.159Z,8.00
2018-01-16T10:24:32.607Z,7.90
2018-01-16T10:27:00.052Z,7.90
2018-01-16T10:29:27.494Z,7.90
2018-01-16T10:31:55.707Z,7.80
2018-01-16T10:34:23.153Z,7.80
2018-01-16T10:36:50.630Z,7.80
2018-01-16T10:39:18.074Z,7.80
2018-01-16T10:41:45.542Z,7.80
2018-01-16T10:44:12.975Z,7.70
2018-01-16T10:46:40.851Z,7.70
2018-01-16T10:49:08.285Z,7.70
2018-01-16T10:51:35.730Z,7.70
2018-01-16T10:54:03.939Z,7.70
2018-01-16T10:56:32.331Z,7.60
2018-01-16T10:58:59.774Z,7.60
2018-01-16T11:01:27.218Z,7.70
2018-01-16T11:03:54.683Z,7.70
2018-01-16T11:06:22.103Z,7.70
2018-01-16T11:08:50.407Z,7.80
2018-01-16T11:11:17.850Z,7.80
2018-01-16T11:13:46.055Z,7.90
2018-01-16T11:16:13.490Z,7.90
2018-01-16T11:18:40.926Z,7.90
2018-01-16T11:21:09.132Z,7.90
2018-01-16T11:23:36.614Z,7.80
2018-01-16T11:26:04.166Z,7.90
2018-01-16T11:28:31.604Z,7.80
2018-01-16T11:30:59.040Z,7.80
2018-01-16T11:33:27.300Z,7.80
2018-01-16T11:35:54.685Z,7.80
2018-01-16T11:38:22.110Z,7.80
2018-01-16T11:40:50.326Z,7.70
2018-01-16T11:43:17.772Z,7.70
2018-01-16T11:45:45.208Z,7.70
2018-01-16T11:48:13.407Z,7.70
2018-01-16T11:50:40.845Z,7.70
2018-01-16T11:53:08.282Z,7.60
2018-01-16T11:55:36.493Z,7.60
2018-01-16T11:58:03.923Z,7.60
2018-01-16T12:00:32.245Z,7.50
2018-01-16T12:02:59.680Z,7.50
2018-01-16T12:05:27.123Z,7.50
2018-01-16T12:07:54.555Z,7.60
2018-01-16T12:10:21.997Z,7.60
2018-01-16T12:12:49.546Z,7.50
2018-01-16T12:15:16.987Z,7.60
2018-01-16T12:17:44.423Z,7.60
2018-01-16T12:20:12.727Z,7.50
2018-01-16T12:22:40.169Z,7.50
2018-01-16T12:25:07.620Z,7.50
2018-01-16T12:27:35.062Z,7.50
2018-01-16T12:30:02.512Z,7.40
2018-01-16T12:32:29.945Z,7.30
2018-01-16T12:34:58.162Z,7.10
2018-01-16T12:37:25.610Z,7.10
2018-01-16T12:39:53.106Z,7.10
2018-01-16T12:42:20.548Z,7.00
2018-01-16T12:44:48.012Z,7.00
2018-01-16T12:47:15.448Z,6.90
2018-01-16T12:49:42.880Z,6.90
2018-01-16T12:52:10.330Z,6.80
2018-01-16T12:54:38.551Z,6.80
2018-01-16T12:57:05.986Z,6.70
2018-01-16T12:59:33.522Z,6.70
2018-01-16T13:02:01.001Z,6.60
2018-01-16T13:04:28.439Z,6.60
2018-01-16T13:06:55.887Z,6.60
2018-01-16T13:09:23.328Z,6.70
2018-01-16T13:11:51.553Z,6.60
2018-01-16T13:14:18.990Z,6.60
2018-01-16T13:16:46.426Z,6.50
2018-01-16T13:19:14.651Z,6.50
2018-01-16T13:21:42.098Z,6.50
2018-01-16T13:24:09.895Z,6.50
2018-01-16T13:26:37.358Z,6.50
2018-01-16T13:29:04.786Z,6.60
2018-01-16T13:31:32.231Z,6.70
2018-01-16T13:33:59.691Z,6.70
2018-01-16T13:36:27.167Z,6.90
2018-01-16T13:38:54.593Z,6.90
2018-01-16T13:41:22.119Z,7.00
2018-01-16T13:43:50.319Z,7.10
2018-01-16T13:46:17.786Z,7.10
2018-01-16T13:48:45.214Z,7.20
2018-01-16T13:51:12.659Z,7.20
2018-01-16T13:53:40.859Z,7.30
2018-01-16T13:56:08.302Z,7.30
2018-01-16T13:58:35.799Z,7.30
2018-01-16T14:01:03.251Z,7.30
2018-01-16T14:03:30.705Z,7.40
2018-01-16T14:05:58.134Z,7.50
2018-01-16T14:08:25.595Z,7.50
2018-01-16T14:10:53.081Z,7.60
2018-01-16T14:13:21.291Z,7.50
2018-01-16T14:15:49.491Z,7.50
2018-01-16T14:18:16.958Z,7.50
2018-01-16T14:20:44.382Z,7.50
2018-01-16T14:23:13.538Z,7.40
2018-01-16T14:25:40.989Z,7.40
2018-01-16T14:28:08.435Z,7.30
2018-01-16T14:30:35.882Z,7.30
2018-01-16T14:35:53.945Z,7.20
2018-01-16T14:38:21.404Z,7.10
2018-01-16T14:40:48.856Z,7.00
2018-01-16T14:43:16.304Z,7.00
2018-01-16T14:45:43.735Z,7.00
2018-01-16T14:48:11.970Z,6.90
2018-01-16T14:50:39.429Z,6.90
2018-01-16T14:53:06.884Z,6.90
2018-01-16T14:55:34.319Z,6.80
2018-01-16T14:58:01.761Z,6.80
2018-01-16T15:00:29.231Z,6.70
2018-01-16T15:02:56.690Z,6.70
2018-01-16T15:05:24.139Z,6.70
2018-01-16T15:07:51.597Z,6.70
2018-01-16T15:10:19.098Z,6.70
2018-01-16T15:12:46.551Z,6.70
2018-01-16T15:15:13.980Z,6.70
2018-01-16T15:17:41.428Z,6.70
2018-01-16T15:20:09.375Z,6.70
2018-01-16T15:22:36.816Z,6.70
2018-01-16T15:25:05.098Z,6.60
2018-01-16T15:27:33.319Z,6.50
2018-01-16T15:30:00.769Z,6.60
2018-01-16T15:32:28.221Z,6.50
2018-01-16T15:34:55.684Z,6.50
2018-01-16T15:37:23.141Z,6.50
2018-01-16T15:39:50.615Z,6.50
2018-01-16T15:42:18.079Z,6.50
2018-01-16T15:44:45.523Z,6.50
2018-01-16T15:47:13.791Z,6.50
2018-01-16T15:49:41.261Z,6.50
2018-01-16T15:52:08.703Z,6.50
2018-01-16T15:54:36.147Z,6.50
2018-01-16T15:57:03.612Z,6.40
2018-01-16T15:59:31.059Z,6.40
2018-01-16T16:01:58.527Z,6.40
2018-01-16T16:04:25.975Z,6.40
2018-01-16T16:06:54.196Z,6.40
2018-01-16T16:09:21.638Z,6.40
2018-01-16T16:11:49.085Z,6.40
2018-01-16T16:14:16.539Z,6.40
2018-01-16T16:16:43.988Z,6.30
2018-01-16T16:19:11.465Z,6.30
2018-01-16T16:21:38.922Z,6.30
2018-01-16T16:24:06.364Z,6.30
2018-01-16T16:26:33.812Z,6.30
2018-01-16T16:29:01.288Z,6.40
2018-01-16T16:31:28.771Z,6.30
2018-01-16T16:33:56.223Z,6.30
2018-01-16T16:36:24.447Z,6.30
2018-01-16T16:38:51.895Z,6.30
2018-01-16T16:41:19.371Z,6.30
2018-01-16T16:43:46.833Z,6.30
2018-01-16T17:37:03.006Z,6.60
2018-01-16T17:39:30.411Z,6.60
2018-01-16T17:41:57.868Z,6.70
2018-01-16T17:44:25.334Z,6.70
2018-01-16T17:46:52.797Z,6.70
2018-01-16T17:49:20.318Z,6.70
2018-01-16T17:51:47.746Z,6.70
2018-01-16T17:54:15.190Z,6.60
2018-01-16T17:56:43.406Z,6.50
2018-01-16T17:59:11.603Z,6.50
2018-01-16T18:01:39.156Z,6.50
2018-01-16T18:04:06.613Z,6.40
2018-01-16T18:06:34.046Z,6.40
2018-01-16T18:09:01.559Z,6.30
2018-01-16T18:11:29.779Z,6.30
2018-01-16T18:13:57.219Z,6.20
2018-01-16T18:16:24.671Z,6.20
2018-01-16T18:18:52.876Z,6.10
2018-01-16T18:21:20.339Z,6.10
2018-01-16T18:23:47.794Z,6.00
2018-01-16T18:26:15.218Z,6.00
2018-01-16T18:28:42.703Z,5.90
2018-01-16T18:31:10.139Z,5.90
2018-01-16T18:33:37.611Z,5.80
2018-01-16T18:36:06.052Z,5.80
2018-01-16T18:38:34.263Z,5.70
2018-01-16T18:41:01.720Z,5.70
2018-01-16T18:43:29.177Z,5.70
2018-01-16T18:45:56.632Z,5.60
2018-01-16T18:48:24.075Z,5.60
2018-01-16T18:50:51.574Z,5.60
2018-01-16T18:53:19.016Z,5.60
2018-01-16T18:55:46.457Z,5.60
2018-01-16T18:58:13.916Z,5.50
2018-01-16T19:00:41.370Z,5.50
2018-01-16T19:03:08.828Z,5.40
2018-01-16T19:05:36.258Z,5.40
2018-01-16T19:08:03.730Z,5.30
2018-01-16T19:10:32.056Z,5.20
2018-01-16T19:12:59.491Z,5.20
2018-01-16T19:15:26.976Z,5.20
2018-01-16T19:17:54.386Z,5.20
2018-01-16T19:20:21.815Z,5.20
2018-01-16T19:22:49.315Z,5.20
2018-01-16T19:25:16.762Z,5.10
2018-01-16T19:27:44.199Z,5.10
2018-01-16T19:30:11.870Z,5.10
2018-01-16T19:32:39.338Z,5.10
2018-01-16T19:35:06.763Z,5.10
2018-01-16T19:37:34.202Z,5.10
2018-01-16T19:40:02.411Z,5.10
2018-01-16T19:42:29.855Z,5.00
2018-01-16T19:44:57.291Z,5.00
2018-01-16T19:47:25.562Z,5.10
2018-01-16T19:49:53.768Z,5.00
2018-01-16T19:52:21.251Z,5.00
2018-01-16T19:54:48.699Z,5.00
2018-01-16T19:57:16.171Z,4.90
2018-01-16T19:59:43.595Z,4.90
2018-01-16T20:02:12.089Z,4.90
2018-01-16T20:04:39.535Z,4.80
2018-01-16T20:07:07.017Z,4.80
2018-01-16T20:09:34.447Z,4.80
2018-01-16T20:12:01.883Z,4.70
2018-01-16T20:14:29.322Z,4.70
2018-01-16T20:16:57.523Z,4.70
2018-01-16T20:19:24.971Z,4.70
2018-01-16T20:21:52.403Z,4.70
2018-01-16T20:24:20.643Z,4.60
2018-01-16T20:26:48.127Z,4.60
2018-01-16T20:29:15.549Z,4.60
2018-01-16T20:31:43.013Z,4.60
2018-01-16T20:34:10.448Z,4.60
2018-01-16T20:36:37.887Z,4.60
2018-01-16T20:39:05.396Z,4.60
2018-01-16T20:41:32.864Z,4.60
2018-01-16T20:44:00.351Z,4.60
2018-01-16T20:46:28.543Z,4.50
2018-01-16T20:48:56.048Z,4.50
2018-01-16T20:51:23.516Z,4.50
2018-01-16T20:53:50.959Z,4.50
2018-01-16T20:56:18.454Z,4.50
2018-01-16T20:58:46.695Z,4.40
2018-01-16T21:01:14.114Z,4.40
2018-01-16T21:03:41.605Z,4.40
2018-01-16T21:06:09.031Z,4.40
2018-01-16T21:08:36.516Z,4.40
2018-01-16T21:11:04.006Z,4.30
2018-01-16T21:13:32.207Z,4.30
2018-01-16T21:15:59.650Z,4.30
2018-01-16T21:18:33.405Z,4.30
2018-01-16T21:21:00.844Z,4.30
2018-01-16T21:23:28.323Z,4.30
2018-01-16T21:25:55.751Z,4.30
2018-01-16T21:28:23.203Z,4.30
2018-01-16T21:30:50.682Z,4.30
2018-01-16T21:33:18.170Z,4.30
2018-01-16T21:35:45.596Z,4.30
2018-01-16T21:38:13.058Z,4.40
2018-01-16T21:40:40.525Z,4.40
2018-01-16T21:43:08.000Z,4.40
2018-01-16T21:45:36.964Z,4.40
2018-01-16T21:48:07.284Z,4.40
2018-01-16T21:50:34.728Z,4.50
2018-01-16T21:53:02.167Z,4.50
2018-01-16T21:55:29.666Z,4.50
2018-01-16T21:57:57.133Z,4.60
2018-01-16T22:00:24.566Z,4.60
2018-01-16T22:02:52.003Z,4.70
2018-01-16T22:05:19.516Z,4.70
2018-01-16T22:07:47.726Z,4.70
2018-01-16T22:10:15.155Z,4.70
2018-01-16T22:12:42.606Z,4.70
2018-01-16T22:15:10.864Z,4.70
2018-01-16T22:17:38.361Z,4.70
2018-01-16T22:20:05.743Z,4.70
2018-01-16T22:22:33.225Z,4.80
2018-01-16T22:25:00.655Z,4.80
2018-01-16T22:27:28.246Z,4.80
2018-01-16T22:29:55.675Z,4.90
2018-01-16T22:32:23.128Z,4.90
2018-01-16T22:34:50.585Z,4.90
2018-01-16T22:37:18.032Z,4.90
2018-01-16T22:39:45.478Z,4.90
2018-01-16T22:42:12.919Z,5.00
2018-01-16T22:44:40.359Z,5.00
2018-01-16T22:47:08.593Z,5.00
2018-01-16T22:49:36.044Z,5.00
2018-01-16T22:52:03.500Z,5.00
2018-01-16T22:54:31.039Z,5.00
2018-01-16T22:56:58.471Z,5.10
2018-01-16T22:59:25.915Z,5.10
2018-01-16T23:01:53.339Z,5.10
2018-01-16T23:04:20.780Z,5.10
2018-01-16T23:06:48.227Z,5.10
2018-01-16T23:09:15.678Z,5.10
2018-01-16T23:11:43.124Z,5.10
2018-01-16T23:14:10.559Z,5.00
2018-01-16T23:16:38.007Z,5.00
2018-01-16T23:19:06.229Z,4.90
2018-01-16T23:21:33.699Z,4.90
2018-01-16T23:24:01.123Z,4.90
2018-01-16T23:26:28.575Z,4.90
2018-01-16T23:28:56.027Z,4.90
2018-01-16T23:31:23.470Z,4.90
2018-01-16T23:33:51.671Z,4.90
2018-01-16T23:36:19.107Z,4.90
2018-01-16T23:38:46.552Z,4.90
2018-01-16T23:41:14.760Z,4.90
2018-01-16T23:43:42.200Z,4.90
2018-01-16T23:46:09.636Z,4.90
2018-01-16T23:48:37.842Z,4.90
2018-01-16T23:51:05.284Z,4.80
2018-01-16T23:53:32.727Z,4.80
2018-01-16T23:56:00.935Z,4.80
2018-01-16T23:58:28.378Z,4.80
